createdAt,value
2022-09-20T00:01:21.681Z,69.20
2022-09-20T00:03:52.380Z,69.30
2022-09-20T00:06:23.000Z,69.40
2022-09-20T00:08:51.565Z,69.40
2022-09-20T00:11:21.766Z,69.60
2022-09-20T00:13:51.439Z,69.60
2022-09-20T00:16:23.016Z,69.60
2022-09-20T00:18:52.318Z,69.50
2022-09-20T00:21:22.258Z,69.70
2022-09-20T00:23:50.920Z,69.80
2022-09-20T00:26:19.023Z,69.80
2022-09-20T00:28:48.000Z,69.90
2022-09-20T00:31:16.709Z,69.90
2022-09-20T00:34:03.518Z,69.90
2022-09-20T00:36:32.304Z,70.00
2022-09-20T00:39:02.088Z,70.00
2022-09-20T00:41:31.236Z,70.00
2022-09-20T00:44:00.315Z,70.00
2022-09-20T00:46:34.404Z,70.20
2022-09-20T00:49:15.153Z,70.30
2022-09-20T00:51:48.288Z,70.40
2022-09-20T00:54:20.658Z,70.50
2022-09-20T00:56:50.034Z,70.60
2022-09-20T00:59:21.022Z,70.60
2022-09-20T01:01:53.167Z,70.60
2022-09-20T01:04:25.114Z,70.60
2022-09-20T01:06:56.062Z,70.60
2022-09-20T01:09:24.178Z,70.70
2022-09-20T01:11:55.411Z,70.90
2022-09-20T01:14:24.806Z,70.80
2022-09-20T01:16:56.394Z,71.20
2022-09-20T01:19:35.657Z,71.20
2022-09-20T01:22:07.917Z,71.40
2022-09-20T01:24:44.121Z,71.40
2022-09-20T01:27:23.489Z,71.20
2022-09-20T01:30:06.214Z,71.50
2022-09-20T01:32:45.452Z,71.50
2022-09-20T01:35:14.359Z,71.50
2022-09-20T01:37:54.364Z,71.60
2022-09-20T01:40:28.956Z,71.60
2022-09-20T01:43:06.566Z,71.60
2022-09-20T01:45:36.294Z,71.80
2022-09-20T01:48:14.695Z,72.00
2022-09-20T01:51:05.813Z,72.00
2022-09-20T01:53:58.833Z,71.90
2022-09-20T01:57:32.418Z,72.00
2022-09-20T02:00:14.210Z,71.80
2022-09-20T02:03:17.879Z,72.00
2022-09-20T02:06:18.145Z,72.00
2022-09-20T02:09:23.465Z,72.10
2022-09-20T02:12:07.284Z,72.20
2022-09-20T02:14:43.728Z,72.30
2022-09-20T02:17:16.372Z,72.40
2022-09-20T02:20:06.755Z,72.40
2022-09-20T02:22:50.163Z,72.40
2022-09-20T02:25:50.838Z,72.40
2022-09-20T02:28:31.181Z,72.50
2022-09-20T02:31:12.509Z,72.50
2022-09-20T02:33:58.367Z,72.60
2022-09-20T02:36:38.198Z,72.60
2022-09-20T02:39:16.360Z,72.60
2022-09-20T02:41:58.261Z,72.70
2022-09-20T02:44:47.079Z,72.70
2022-09-20T02:47:22.713Z,72.70
2022-09-20T02:50:04.332Z,72.60
2022-09-20T02:52:38.930Z,72.70
2022-09-20T02:55:15.003Z,72.70
2022-09-20T02:57:51.889Z,72.80
2022-09-20T03:00:24.330Z,72.80
2022-09-20T03:03:04.801Z,72.90
2022-09-20T03:05:40.908Z,73.10
2022-09-20T03:08:21.936Z,73.10
2022-09-20T03:10:58.253Z,73.10
2022-09-20T03:13:37.444Z,73.00
2022-09-20T03:16:14.167Z,73.10
2022-09-20T03:18:50.141Z,73.10
2022-09-20T03:21:30.968Z,73.00
2022-09-20T03:24:10.239Z,73.10
2022-09-20T03:26:53.992Z,73.10
2022-09-20T03:29:36.263Z,73.20
2022-09-20T03:32:16.640Z,73.20
2022-09-20T03:34:59.220Z,73.20
2022-09-20T03:37:42.593Z,73.30
2022-09-20T03:40:30.541Z,73.30
2022-09-20T03:43:10.511Z,73.50
2022-09-20T03:45:59.083Z,73.50
2022-09-20T03:48:58.148Z,73.60
2022-09-20T03:51:34.139Z,73.70
2022-09-20T03:54:43.628Z,73.90
2022-09-20T03:57:38.932Z,73.90
2022-09-20T04:00:29.258Z,74.00
2022-09-20T04:03:10.062Z,74.00
2022-09-20T04:05:51.033Z,74.00
2022-09-20T04:08:40.059Z,73.90
2022-09-20T04:11:17.560Z,74.00
2022-09-20T04:13:53.635Z,74.00
2022-09-20T04:16:36.324Z,74.00
2022-09-20T04:19:12.707Z,73.90
2022-09-20T04:21:47.167Z,73.90
2022-09-20T04:24:37.955Z,73.90
2022-09-20T04:27:13.566Z,73.90
2022-09-20T04:29:45.951Z,74.00
2022-09-20T04:32:23.077Z,74.10
2022-09-20T04:35:23.239Z,74.20
2022-09-20T04:37:53.113Z,74.40
2022-09-20T04:40:30.517Z,74.40
2022-09-20T04:43:37.730Z,74.40
2022-09-20T04:46:36.630Z,74.40
2022-09-20T04:49:54.943Z,74.40
2022-09-20T04:52:56.517Z,74.50
2022-09-20T04:55:52.918Z,74.60
2022-09-20T04:58:46.990Z,74.60
2022-09-20T05:02:10.164Z,74.80
2022-09-20T05:05:14.443Z,74.80
2022-09-20T05:08:20.858Z,74.70
2022-09-20T05:11:27.680Z,74.70
2022-09-20T05:14:24.875Z,74.70
2022-09-20T05:17:08.678Z,74.70
2022-09-20T05:19:48.644Z,74.80
2022-09-20T05:22:45.228Z,74.80
2022-09-20T05:25:42.525Z,74.90
2022-09-20T05:28:19.300Z,75.00
2022-09-20T05:30:50.906Z,75.00
2022-09-20T05:33:24.450Z,75.00
2022-09-20T05:36:03.427Z,75.00
2022-09-20T05:38:44.889Z,74.90
2022-09-20T05:41:19.820Z,74.90
2022-09-20T05:43:59.703Z,74.90
2022-09-20T05:46:41.101Z,75.00
2022-09-20T05:49:18.839Z,74.90
2022-09-20T05:52:05.562Z,74.90
2022-09-20T05:55:07.784Z,74.90
2022-09-20T05:57:48.882Z,74.90
2022-09-20T06:00:19.720Z,75.00
2022-09-20T06:02:55.175Z,75.00
2022-09-20T06:05:34.915Z,74.90
2022-09-20T06:08:31.116Z,75.10
2022-09-20T06:11:15.726Z,75.20
2022-09-20T06:14:02.111Z,75.00
2022-09-20T06:16:40.382Z,75.10
2022-09-20T06:19:17.262Z,75.20
2022-09-20T06:22:00.882Z,75.20
2022-09-20T06:24:37.815Z,75.20
2022-09-20T06:27:11.923Z,75.10
2022-09-20T06:29:45.839Z,75.10
2022-09-20T06:32:18.329Z,75.00
2022-09-20T06:34:47.727Z,74.90
2022-09-20T06:37:58.611Z,74.80
2022-09-20T06:40:53.836Z,74.70
2022-09-20T06:43:23.350Z,74.50
2022-09-20T06:45:51.478Z,74.30
2022-09-20T06:48:19.927Z,74.20
2022-09-20T06:50:48.080Z,74.10
2022-09-20T06:53:19.001Z,74.00
2022-09-20T06:55:47.957Z,73.80
2022-09-20T06:58:16.181Z,73.60
2022-09-20T07:00:46.135Z,73.40
2022-09-20T07:03:14.268Z,73.10
2022-09-20T07:05:42.414Z,72.90
2022-09-20T07:08:10.562Z,72.70
2022-09-20T07:10:39.123Z,72.50
2022-09-20T07:13:07.384Z,72.30
2022-09-20T07:15:36.337Z,72.10
2022-09-20T07:18:09.272Z,72.00
2022-09-20T07:20:37.928Z,71.80
2022-09-20T07:23:06.086Z,71.80
2022-09-20T07:25:34.335Z,71.70
2022-09-20T07:28:02.630Z,71.70
2022-09-20T07:30:30.761Z,71.70
2022-09-20T07:32:58.870Z,71.50
2022-09-20T07:35:28.532Z,71.30
2022-09-20T07:38:00.107Z,71.00
2022-09-20T07:40:28.293Z,70.80
2022-09-20T07:42:58.162Z,70.40
2022-09-20T07:45:26.360Z,70.10
2022-09-20T07:47:54.643Z,69.90
2022-09-20T07:50:22.812Z,69.60
2022-09-20T07:52:52.544Z,69.50
2022-09-20T07:55:20.698Z,69.40
2022-09-20T07:57:48.866Z,69.30
2022-09-20T08:00:17.172Z,69.30
2022-09-20T08:02:45.738Z,68.90
2022-09-20T08:05:13.879Z,68.40
2022-09-20T08:07:42.009Z,68.20
2022-09-20T08:10:12.102Z,68.00
2022-09-20T08:15:29.720Z,67.20
2022-09-20T08:17:58.094Z,67.00
2022-09-20T08:20:26.195Z,66.80
2022-09-20T08:23:19.542Z,66.40
2022-09-20T08:25:44.831Z,66.10
2022-09-20T08:28:12.918Z,65.90
2022-09-20T08:30:41.023Z,65.80
2022-09-20T08:33:09.267Z,65.80
2022-09-20T08:35:38.659Z,65.30
2022-09-20T08:41:02.028Z,65.10
2022-09-20T08:43:35.756Z,64.50
2022-09-20T08:46:06.083Z,64.50
2022-09-20T08:48:35.204Z,64.60
2022-09-20T08:51:05.588Z,64.20
2022-09-20T08:53:34.992Z,64.10
2022-09-20T08:56:04.814Z,63.80
2022-09-20T08:58:33.157Z,63.90
2022-09-20T09:01:02.028Z,63.60
2022-09-20T09:03:30.254Z,63.40
2022-09-20T09:05:59.403Z,63.20
2022-09-20T09:08:30.987Z,62.90
2022-09-20T09:11:01.210Z,62.90
2022-09-20T09:13:35.440Z,62.90
2022-09-20T09:16:09.297Z,62.10
2022-09-20T09:18:40.318Z,62.00
2022-09-20T09:21:10.499Z,61.90
2022-09-20T09:23:42.500Z,61.90
2022-09-20T09:26:19.000Z,61.80
2022-09-20T09:28:49.337Z,61.70
2022-09-20T09:31:25.939Z,61.70
2022-09-20T09:33:54.680Z,61.00
2022-09-20T09:36:25.420Z,61.00
2022-09-20T09:39:17.598Z,61.10
2022-09-20T09:41:46.513Z,60.90
2022-09-20T09:44:24.771Z,60.60
2022-09-20T09:46:54.542Z,60.40
2022-09-20T09:49:24.787Z,60.10
2022-09-20T09:52:05.860Z,59.80
2022-09-20T09:54:36.818Z,59.50
2022-09-20T09:57:17.429Z,59.30
2022-09-20T10:00:22.560Z,58.90
2022-09-20T10:03:20.777Z,59.10
2022-09-20T10:06:04.069Z,59.10
2022-09-20T10:08:42.495Z,58.60
2022-09-20T10:11:24.874Z,59.10
2022-09-20T10:14:05.468Z,59.10
2022-09-20T10:17:00.015Z,58.60
2022-09-20T10:19:44.045Z,58.10
2022-09-20T10:22:19.671Z,57.60
2022-09-20T10:24:56.558Z,58.10
2022-09-20T10:27:36.968Z,58.00
2022-09-20T10:30:11.727Z,57.70
2022-09-20T10:33:01.061Z,57.40
2022-09-20T10:35:38.853Z,57.30
2022-09-20T10:38:16.301Z,57.20
2022-09-20T10:41:37.282Z,56.50
2022-09-20T10:44:31.994Z,56.00
2022-09-20T10:47:06.838Z,55.70
2022-09-20T10:49:47.197Z,55.30
2022-09-20T10:52:41.575Z,54.80
2022-09-20T10:55:21.699Z,55.30
2022-09-20T10:58:14.198Z,54.40
2022-09-20T11:00:54.132Z,54.00
2022-09-20T11:03:38.348Z,52.30
2022-09-20T11:06:18.094Z,52.00
2022-09-20T11:08:50.919Z,49.50
2022-09-20T11:11:22.933Z,49.20
2022-09-20T11:13:59.489Z,49.90
2022-09-20T11:16:34.317Z,49.80
2022-09-20T11:19:07.371Z,49.90
2022-09-20T11:21:41.196Z,49.60
2022-09-20T11:24:20.066Z,49.10
2022-09-20T11:26:54.259Z,48.70
2022-09-20T11:29:27.349Z,48.60
2022-09-20T11:32:01.340Z,48.50
2022-09-20T11:34:34.249Z,48.60
2022-09-20T11:37:03.832Z,47.90
2022-09-20T11:39:38.917Z,47.20
2022-09-20T11:42:13.965Z,46.80
2022-09-20T11:44:43.560Z,46.10
2022-09-20T11:47:36.679Z,46.40
2022-09-20T11:50:44.427Z,46.10
2022-09-20T11:53:32.124Z,46.40
2022-09-20T11:56:07.246Z,45.90
2022-09-20T11:58:47.069Z,46.80
2022-09-20T12:01:16.414Z,46.60
2022-09-20T12:03:47.229Z,46.80
2022-09-20T12:06:28.249Z,46.70
2022-09-20T12:08:59.930Z,46.80
2022-09-20T12:11:31.242Z,47.00
2022-09-20T12:14:05.324Z,46.60
2022-09-20T12:16:42.272Z,47.00
2022-09-20T12:19:14.060Z,47.20
2022-09-20T12:22:28.476Z,47.60
2022-09-20T12:25:45.746Z,47.30
2022-09-20T12:28:17.360Z,47.40
2022-09-20T12:30:45.491Z,48.20
2022-09-20T12:33:22.168Z,48.40
2022-09-20T12:35:55.141Z,48.60
2022-09-20T12:38:50.864Z,49.00
2022-09-20T12:41:28.260Z,49.10
2022-09-20T12:44:05.806Z,49.00
2022-09-20T12:46:51.959Z,48.90
2022-09-20T12:49:40.463Z,48.80
2022-09-20T12:52:44.560Z,48.70
2022-09-20T12:55:26.886Z,48.30
2022-09-20T12:57:58.570Z,47.90
2022-09-20T13:00:38.489Z,47.70
2022-09-20T13:03:24.029Z,47.50
2022-09-20T13:06:28.258Z,46.70
2022-09-20T13:09:09.116Z,47.00
2022-09-20T13:11:42.076Z,46.40
2022-09-20T13:14:14.549Z,46.60
2022-09-20T13:16:52.264Z,45.80
2022-09-20T13:19:23.616Z,45.40
2022-09-20T13:21:59.406Z,44.90
2022-09-20T13:24:30.962Z,44.20
2022-09-20T13:27:06.430Z,43.20
2022-09-20T13:29:38.629Z,43.80
2022-09-20T13:32:19.543Z,42.80
2022-09-20T13:34:47.687Z,43.90
2022-09-20T13:37:23.469Z,44.20
2022-09-20T13:39:55.688Z,44.10
2022-09-20T13:42:28.164Z,44.10
2022-09-20T13:44:58.712Z,44.20
2022-09-20T13:47:28.761Z,44.00
2022-09-20T13:50:02.172Z,44.20
2022-09-20T13:52:33.012Z,44.20
2022-09-20T13:55:01.172Z,44.10
2022-09-20T13:57:31.102Z,44.20
2022-09-20T14:00:01.744Z,43.80
2022-09-20T14:02:33.472Z,44.30
2022-09-20T14:05:03.828Z,44.60
2022-09-20T14:07:36.789Z,44.70
2022-09-20T14:10:05.977Z,44.60
2022-09-20T14:12:34.776Z,44.10
2022-09-20T14:15:06.897Z,44.20
2022-09-20T14:17:36.873Z,44.40
2022-09-20T14:20:05.934Z,44.60
2022-09-20T14:22:35.571Z,44.60
2022-09-20T14:25:18.577Z,44.40
2022-09-20T14:27:46.669Z,44.30
2022-09-20T14:30:30.663Z,44.20
2022-09-20T14:32:59.930Z,44.20
2022-09-20T14:35:28.998Z,44.30
2022-09-20T14:38:01.880Z,43.70
2022-09-20T14:40:32.510Z,43.50
2022-09-20T14:43:02.581Z,43.20
2022-09-20T14:45:33.510Z,43.40
2022-09-20T14:48:11.100Z,43.40
2022-09-20T14:50:41.638Z,43.00
2022-09-20T14:53:27.363Z,42.50
2022-09-20T14:56:10.151Z,42.20
2022-09-20T14:59:08.080Z,42.80
2022-09-20T15:01:39.008Z,41.70
2022-09-20T15:04:09.956Z,41.90
2022-09-20T15:06:40.232Z,41.80
2022-09-20T15:09:13.333Z,41.90
2022-09-20T15:11:42.053Z,42.00
2022-09-20T15:14:10.196Z,42.20
2022-09-20T15:16:38.400Z,42.40
2022-09-20T15:19:08.543Z,42.60
2022-09-20T15:21:37.169Z,42.90
2022-09-20T15:24:05.600Z,43.10
2022-09-20T15:26:35.125Z,43.50
2022-09-20T15:29:03.284Z,43.80
2022-09-20T15:31:31.734Z,44.00
2022-09-20T15:33:59.869Z,44.30
2022-09-20T15:36:32.002Z,44.60
2022-09-20T15:39:00.291Z,44.60
2022-09-20T15:41:31.236Z,45.00
2022-09-20T15:44:01.632Z,45.10
2022-09-20T15:46:29.920Z,45.40
2022-09-20T15:49:00.356Z,45.50
2022-09-20T15:51:30.474Z,45.80
2022-09-20T15:54:00.168Z,45.20
2022-09-20T15:56:30.486Z,45.20
2022-09-20T15:59:02.875Z,45.50
2022-09-20T16:01:32.890Z,45.60
2022-09-20T16:04:02.156Z,45.70
2022-09-20T16:06:30.655Z,45.50
2022-09-20T16:08:58.796Z,44.20
2022-09-20T16:11:28.051Z,40.10
2022-09-20T16:13:57.753Z,36.90
2022-09-20T16:16:28.268Z,36.70
2022-09-20T16:19:13.560Z,39.20
2022-09-20T16:21:43.536Z,41.20
2022-09-20T16:24:13.448Z,42.50
2022-09-20T16:26:42.192Z,43.00
2022-09-20T16:29:11.743Z,43.80
2022-09-20T16:31:42.543Z,44.10
2022-09-20T16:34:17.072Z,44.20
2022-09-20T16:36:45.959Z,44.40
2022-09-20T16:39:15.342Z,44.60
2022-09-20T16:41:48.279Z,44.80
2022-09-20T16:44:16.819Z,44.90
2022-09-20T16:46:46.330Z,45.20
2022-09-20T16:49:16.802Z,45.10
2022-09-20T16:51:46.398Z,45.20
2022-09-20T16:54:16.018Z,45.30
2022-09-20T16:56:46.474Z,45.50
2022-09-20T16:59:16.649Z,45.70
2022-09-20T17:01:46.862Z,45.80
2022-09-20T17:04:16.871Z,45.90
2022-09-20T17:06:45.756Z,46.10
2022-09-20T17:09:15.260Z,46.10
2022-09-20T17:11:45.733Z,46.20
2022-09-20T17:14:15.025Z,46.40
2022-09-20T17:16:43.462Z,46.70
2022-09-20T17:19:15.756Z,47.50
2022-09-20T17:21:49.946Z,48.30
2022-09-20T17:24:19.047Z,49.00
2022-09-20T17:26:47.226Z,49.70
2022-09-20T17:29:17.435Z,50.20
2022-09-20T17:31:53.950Z,50.80
2022-09-20T17:34:25.409Z,51.30
2022-09-20T17:36:55.994Z,51.80
2022-09-20T17:39:25.654Z,52.20
2022-09-20T17:41:56.363Z,52.50
2022-09-20T17:44:25.639Z,52.80
2022-09-20T17:46:54.139Z,53.00
2022-09-20T17:49:26.745Z,53.40
2022-09-20T17:51:56.311Z,53.70
2022-09-20T17:54:25.065Z,53.90
2022-09-20T17:56:55.869Z,54.20
2022-09-20T17:59:24.598Z,54.50
2022-09-20T18:01:54.413Z,54.70
2022-09-20T18:04:25.073Z,55.00
2022-09-20T18:06:54.781Z,55.20
2022-09-20T18:09:24.882Z,55.50
2022-09-20T18:11:54.313Z,55.60
2022-09-20T18:14:24.223Z,55.80
2022-09-20T18:16:53.831Z,55.90
2022-09-20T18:19:23.644Z,56.10
2022-09-20T18:21:51.959Z,56.20
2022-09-20T18:24:20.171Z,56.40
2022-09-20T18:26:48.307Z,56.60
2022-09-20T18:29:18.262Z,56.70
2022-09-20T18:31:49.196Z,56.90
2022-09-20T18:34:19.144Z,57.20
2022-09-20T18:36:52.915Z,57.40
2022-09-20T18:39:21.831Z,57.40
2022-09-20T18:41:50.744Z,57.60
2022-09-20T18:44:19.534Z,57.60
2022-09-20T18:46:48.304Z,57.80
2022-09-20T18:49:17.136Z,57.70
2022-09-20T18:51:47.227Z,57.60
2022-09-20T18:54:16.938Z,57.60
2022-09-20T18:56:46.657Z,57.50
2022-09-20T18:59:17.012Z,57.60
2022-09-20T19:02:11.239Z,57.70
2022-09-20T19:04:56.123Z,57.90
2022-09-20T19:07:36.191Z,57.90
2022-09-20T19:10:13.224Z,58.00
2022-09-20T19:12:47.117Z,58.10
2022-09-20T19:15:31.191Z,58.20
2022-09-20T19:18:09.842Z,58.10
2022-09-20T19:20:46.668Z,58.00
2022-09-20T19:23:41.225Z,58.10
2022-09-20T19:26:19.853Z,58.10
2022-09-20T19:28:49.040Z,58.00
2022-09-20T19:31:23.662Z,58.10
2022-09-20T19:33:55.033Z,58.10
2022-09-20T19:36:23.940Z,58.10
2022-09-20T19:39:05.386Z,58.20
2022-09-20T19:41:47.320Z,58.10
2022-09-20T19:44:29.728Z,58.10
2022-09-20T19:47:24.131Z,58.20
2022-09-20T19:49:55.652Z,58.10
2022-09-20T19:52:24.916Z,58.00
2022-09-20T19:54:53.894Z,57.90
2022-09-20T19:57:26.722Z,58.00
2022-09-20T19:59:55.959Z,57.90
2022-09-20T20:02:24.664Z,58.00
2022-09-20T20:04:53.177Z,58.10
2022-09-20T20:07:30.046Z,58.20
2022-09-20T20:10:07.740Z,58.30
2022-09-20T20:12:45.759Z,58.40
2022-09-20T20:15:27.657Z,58.40
2022-09-20T20:18:02.286Z,58.40
2022-09-20T20:20:36.137Z,58.60
2022-09-20T20:23:33.713Z,58.50
2022-09-20T20:26:06.803Z,58.60
2022-09-20T20:28:37.233Z,58.50
2022-09-20T20:31:06.402Z,58.60
2022-09-20T20:33:34.600Z,58.60
2022-09-20T20:36:03.623Z,58.70
2022-09-20T20:38:36.936Z,58.70
2022-09-20T20:41:07.774Z,58.50
2022-09-20T20:43:38.704Z,58.70
2022-09-20T20:46:08.279Z,58.80
2022-09-20T20:48:37.210Z,58.90
2022-09-20T20:51:08.806Z,59.00
2022-09-20T20:53:39.290Z,59.20
2022-09-20T20:56:09.285Z,59.50
2022-09-20T20:58:40.868Z,60.00
2022-09-20T21:01:11.834Z,60.20
2022-09-20T21:03:41.142Z,60.30
2022-09-20T21:06:10.726Z,60.40
2022-09-20T21:08:40.834Z,60.50
2022-09-20T21:11:11.549Z,60.40
2022-09-20T21:13:41.493Z,60.60
2022-09-20T21:16:12.260Z,60.70
2022-09-20T21:18:41.608Z,60.80
2022-09-20T21:21:16.323Z,60.80
2022-09-20T21:23:45.777Z,60.80
2022-09-20T21:26:15.702Z,61.10
2022-09-20T21:28:48.853Z,61.20
2022-09-20T21:31:17.206Z,61.20
2022-09-20T21:33:45.722Z,61.30
2022-09-20T21:36:15.879Z,61.30
2022-09-20T21:38:45.331Z,61.30
2022-09-20T21:41:15.070Z,61.40
2022-09-20T21:43:46.135Z,61.50
2022-09-20T21:46:15.646Z,61.60
2022-09-20T21:48:44.209Z,61.80
2022-09-20T21:51:14.509Z,61.90
2022-09-20T21:53:42.876Z,61.90
2022-09-20T21:56:13.534Z,61.90
2022-09-20T21:58:41.974Z,62.00
2022-09-20T22:01:14.181Z,62.30
2022-09-20T22:03:45.335Z,62.30
2022-09-20T22:06:15.602Z,62.60
2022-09-20T22:08:47.518Z,62.80
2022-09-20T22:11:16.333Z,62.90
2022-09-20T22:13:45.381Z,62.90
2022-09-20T22:16:16.553Z,63.00
2022-09-20T22:18:46.107Z,63.00
2022-09-20T22:21:16.001Z,63.00
2022-09-20T22:23:44.897Z,63.10
2022-09-20T22:26:14.715Z,63.20
2022-09-20T22:28:43.775Z,63.20
2022-09-20T22:31:15.259Z,63.20
2022-09-20T22:33:44.994Z,63.40
2022-09-20T22:36:15.311Z,63.50
2022-09-20T22:38:44.264Z,63.50
2022-09-20T22:41:13.388Z,63.60
2022-09-20T22:43:41.857Z,63.70
2022-09-20T22:46:11.890Z,63.80
2022-09-20T22:48:42.097Z,64.00
2022-09-20T22:51:12.201Z,64.00
2022-09-20T22:53:40.563Z,64.10
2022-09-20T22:56:11.042Z,64.20
2022-09-20T22:58:40.928Z,64.40
2022-09-20T23:01:11.052Z,64.60
2022-09-20T23:03:41.742Z,64.70
2022-09-20T23:06:15.051Z,65.00
2022-09-20T23:08:43.691Z,65.20
2022-09-20T23:11:11.952Z,65.30
2022-09-20T23:13:40.383Z,65.50
2022-09-20T23:16:13.233Z,65.60
2022-09-20T23:18:43.149Z,65.70
2022-09-20T23:21:11.283Z,65.80
2022-09-20T23:23:43.144Z,65.90
2022-09-20T23:26:12.964Z,66.00
2022-09-20T23:28:43.902Z,66.10
2022-09-20T23:31:13.939Z,66.20
2022-09-20T23:33:48.357Z,66.30
2022-09-20T23:36:16.988Z,66.40
2022-09-20T23:38:45.450Z,66.50
2022-09-20T23:41:15.363Z,66.60
2022-09-20T23:43:43.939Z,66.70
2022-09-20T23:46:14.083Z,66.80
2022-09-20T23:48:44.360Z,66.80
2022-09-20T23:51:14.120Z,67.00
2022-09-20T23:53:43.116Z,67.20
2022-09-20T23:56:12.805Z,67.30
2022-09-20T23:58:42.322Z,67.30
